createdAt,value
2019-04-27T00:00:32.893Z,100304.98
2019-04-27T00:01:45.392Z,100308.34
2019-04-27T00:03:02.034Z,100287.92
2019-04-27T00:04:23.576Z,100299.41
2019-04-27T00:05:38.269Z,100305.83
2019-04-27T00:06:46.999Z,100302.46
2019-04-27T00:07:59.455Z,100302.75
2019-04-27T00:09:19.204Z,100296.33
2019-04-27T00:10:41.317Z,100293.80
2019-04-27T00:11:56.087Z,100285.13
2019-04-27T00:13:02.193Z,100300.52
2019-04-27T00:14:10.379Z,100301.07
2019-04-27T00:15:15.377Z,100291.27
2019-04-27T00:16:36.251Z,100297.69
2019-04-27T00:17:49.571Z,100290.69
2019-04-27T00:19:01.562Z,100300.20
2019-04-27T00:20:23.970Z,100294.60
2019-04-27T00:21:38.599Z,100294.04
2019-04-27T00:22:44.412Z,100300.75
2019-04-27T00:23:48.686Z,100293.50
2019-04-27T00:24:53.173Z,100286.50
2019-04-27T00:25:57.566Z,100289.85
2019-04-27T00:27:03.281Z,100297.14
2019-04-27T00:28:07.707Z,100291.54
2019-04-27T00:29:13.678Z,100285.91
2019-04-27T00:30:18.973Z,100288.99
2019-04-27T00:31:23.475Z,100284.24
2019-04-27T00:32:27.717Z,100282.84
2019-04-27T00:33:33.813Z,100289.56
2019-04-27T00:34:37.976Z,100283.69
2019-04-27T00:35:58.875Z,100280.06
2019-04-27T00:37:17.800Z,100279.22
2019-04-27T00:38:38.964Z,100278.67
2019-04-27T00:39:50.809Z,100281.47
2019-04-27T00:40:56.689Z,100277.28
2019-04-27T00:42:03.294Z,100281.19
2019-04-27T00:43:08.559Z,100274.19
2019-04-27T00:44:13.520Z,100283.43
2019-04-27T00:45:17.698Z,100278.12
2019-04-27T00:46:22.870Z,100280.92
2019-04-27T00:47:27.231Z,100276.44
2019-04-27T00:48:33.249Z,100276.16
2019-04-27T00:49:38.288Z,100277.56
2019-04-27T00:50:43.870Z,100274.77
2019-04-27T00:51:48.250Z,100267.78
2019-04-27T00:52:53.193Z,100276.18
2019-04-27T00:53:57.453Z,100274.78
2019-04-27T00:55:03.146Z,100277.86
2019-04-27T00:56:17.911Z,100272.27
2019-04-27T00:57:33.316Z,100275.06
2019-04-27T00:58:43.027Z,100272.53
2019-04-27T01:00:05.404Z,100278.97
2019-04-27T01:01:12.701Z,100278.41
2019-04-27T01:02:19.049Z,100272.80
2019-04-27T01:03:37.098Z,100281.20
2019-04-27T01:04:42.840Z,100278.95
2019-04-27T01:05:47.161Z,100283.67
2019-04-27T01:06:51.458Z,100285.08
2019-04-27T01:07:55.655Z,100287.03
2019-04-27T01:08:59.898Z,100283.11
2019-04-27T01:10:06.360Z,100275.84
2019-04-27T01:11:10.531Z,100273.89
2019-04-27T01:12:16.619Z,100276.15
2019-04-27T01:13:20.914Z,100262.40
2019-04-27T01:14:25.117Z,100274.70
2019-04-27T01:15:29.360Z,100276.95
2019-04-27T01:16:33.608Z,100276.11
2019-04-27T01:17:39.083Z,100266.86
2019-04-27T01:18:43.367Z,100273.28
2019-04-27T01:19:49.385Z,100266.86
2019-04-27T01:20:53.623Z,100271.61
2019-04-27T01:21:58.611Z,100272.17
2019-04-27T01:23:02.811Z,100270.22
2019-04-27T01:24:08.894Z,100279.44
2019-04-27T01:25:13.317Z,100276.92
2019-04-27T01:26:19.302Z,100272.48
2019-04-27T01:27:25.186Z,100271.91
2019-04-27T01:28:31.012Z,100264.36
2019-04-27T01:29:36.824Z,100272.77
2019-04-27T01:30:43.731Z,100267.17
2019-04-27T01:31:48.677Z,100266.05
2019-04-27T01:32:52.872Z,100274.16
2019-04-27T01:33:58.909Z,100274.47
2019-04-27T01:35:03.076Z,100270.52
2019-04-27T01:36:08.883Z,100266.89
2019-04-27T01:37:13.371Z,100269.98
2019-04-27T01:38:19.101Z,100267.72
2019-04-27T01:39:23.597Z,100266.88
2019-04-27T01:40:29.391Z,100263.80
2019-04-27T01:41:33.793Z,100267.46
2019-04-27T01:42:39.526Z,100266.03
2019-04-27T01:43:43.776Z,100271.63
2019-04-27T01:44:50.836Z,100271.37
2019-04-27T01:45:53.872Z,100267.73
2019-04-27T01:46:59.769Z,100266.36
2019-04-27T01:48:04.970Z,100265.27
2019-04-27T01:49:09.300Z,100261.05
2019-04-27T01:50:13.560Z,100266.93
2019-04-27T01:51:20.755Z,100265.81
2019-04-27T01:52:23.607Z,100267.48
2019-04-27T01:53:28.910Z,100259.95
2019-04-27T01:54:33.798Z,100259.09
2019-04-27T01:55:38.676Z,100268.33
2019-04-27T01:56:43.900Z,100257.70
2019-04-27T01:57:48.719Z,100247.05
2019-04-27T01:58:53.032Z,100264.36
2019-04-27T01:59:58.897Z,100266.86
2019-04-27T02:01:24.339Z,100268.84
2019-04-27T02:02:46.408Z,100259.05
2019-04-27T02:03:55.231Z,100264.94
2019-04-27T02:05:18.868Z,100262.14
2019-04-27T02:06:22.801Z,100263.25
2019-04-27T02:07:27.295Z,100262.72
2019-04-27T02:08:31.466Z,100267.50
2019-04-27T02:09:35.735Z,100257.16
2019-04-27T02:10:40.098Z,100263.58
2019-04-27T02:11:44.344Z,100256.86
2019-04-27T02:12:48.773Z,100265.25
2019-04-27T02:13:53.127Z,100263.01
2019-04-27T02:14:58.883Z,100263.31
2019-04-27T02:16:03.706Z,100256.59
2019-04-27T02:17:09.576Z,100264.98
2019-04-27T02:18:13.903Z,100264.70
2019-04-27T02:19:19.380Z,100267.23
2019-04-27T02:20:24.633Z,100261.92
2019-04-27T02:21:29.435Z,100258.25
2019-04-27T02:22:33.897Z,100259.39
2019-04-27T02:23:39.354Z,100264.98
2019-04-27T02:24:43.593Z,100263.86
2019-04-27T02:25:49.529Z,100256.30
2019-04-27T02:26:53.934Z,100261.89
2019-04-27T02:28:02.560Z,100261.34
2019-04-27T02:29:24.730Z,100257.14
2019-04-27T02:30:36.526Z,100259.66
2019-04-27T02:31:42.555Z,100256.30
2019-04-27T02:32:51.271Z,100255.74
2019-04-27T02:34:11.727Z,100252.39
2019-04-27T02:35:15.958Z,100253.50
2019-04-27T02:36:20.410Z,100248.19
2019-04-27T02:37:24.554Z,100252.67
2019-04-27T02:38:30.528Z,100245.94
2019-04-27T02:39:34.893Z,100247.31
2019-04-27T02:40:45.255Z,100241.17
2019-04-27T02:41:51.814Z,100247.31
2019-04-27T02:42:55.628Z,100236.69
2019-04-27T02:44:01.956Z,100238.08
2019-04-27T02:45:06.390Z,100241.72
2019-04-27T02:46:11.904Z,100237.81
2019-04-27T02:47:16.082Z,100236.70
2019-04-27T02:48:20.533Z,100233.87
2019-04-27T02:49:24.860Z,100236.98
2019-04-27T02:50:29.377Z,100233.91
2019-04-27T02:51:42.816Z,100230.55
2019-04-27T02:52:49.811Z,100233.34
2019-04-27T02:53:54.423Z,100235.83
2019-04-27T02:54:59.376Z,100237.81
2019-04-27T02:56:05.031Z,100238.38
2019-04-27T02:57:10.376Z,100224.95
2019-04-27T02:58:14.600Z,100238.08
2019-04-27T02:59:19.901Z,100234.17
2019-04-27T03:00:25.093Z,100233.61
2019-04-27T03:01:30.979Z,100240.07
2019-04-27T03:02:36.927Z,100228.88
2019-04-27T03:03:41.368Z,100227.17
2019-04-27T03:04:45.488Z,100227.17
2019-04-27T03:05:59.872Z,100233.89
2019-04-27T03:07:07.697Z,100233.89
2019-04-27T03:08:11.927Z,100236.69
2019-04-27T03:09:16.244Z,100246.20
2019-04-27T03:10:20.599Z,100233.33
2019-04-27T03:11:25.792Z,100235.02
2019-04-27T03:12:31.709Z,100239.48
2019-04-27T03:13:40.404Z,100233.33
2019-04-27T03:14:45.935Z,100236.41
2019-04-27T03:15:52.037Z,100235.86
2019-04-27T03:17:00.648Z,100235.83
2019-04-27T03:18:09.894Z,100236.14
2019-04-27T03:19:29.739Z,100238.09
2019-04-27T03:20:35.714Z,100240.03
2019-04-27T03:21:53.717Z,100236.67
2019-04-27T03:23:00.142Z,100237.53
2019-04-27T03:24:04.999Z,100242.82
2019-04-27T03:25:14.932Z,100231.06
2019-04-27T03:26:24.426Z,100231.83
2019-04-27T03:27:45.841Z,100229.84
2019-04-27T03:28:51.244Z,100223.64
2019-04-27T03:29:55.416Z,100221.38
2019-04-27T03:31:02.439Z,100227.18
2019-04-27T03:32:05.699Z,100222.41
2019-04-27T03:33:11.955Z,100221.25
2019-04-27T03:34:16.564Z,100224.09
2019-04-27T03:35:23.238Z,100224.36
2019-04-27T03:36:31.286Z,100218.50
2019-04-27T03:37:33.821Z,100213.72
2019-04-27T03:38:39.686Z,100212.08
2019-04-27T03:39:44.520Z,100216.27
2019-04-27T03:40:50.612Z,100215.38
2019-04-27T03:41:55.335Z,100220.18
2019-04-27T03:43:01.292Z,100220.18
2019-04-27T03:44:05.561Z,100217.11
2019-04-27T03:45:10.946Z,100222.64
2019-04-27T03:46:15.388Z,100216.72
2019-04-27T03:47:20.051Z,100220.08
2019-04-27T03:48:25.479Z,100221.52
2019-04-27T03:49:37.803Z,100218.40
2019-04-27T03:50:42.943Z,100219.27
2019-04-27T03:51:54.810Z,100225.33
2019-04-27T03:53:07.037Z,100217.23
2019-04-27T03:54:15.631Z,100222.52
2019-04-27T03:55:21.565Z,100228.33
2019-04-27T03:56:30.593Z,100222.47
2019-04-27T03:57:42.351Z,100223.91
2019-04-27T03:58:50.844Z,100216.58
2019-04-27T03:59:59.725Z,100218.28
2019-04-27T04:01:04.550Z,100216.39
2019-04-27T04:02:10.205Z,100212.48
2019-04-27T04:03:14.582Z,100219.20
2019-04-27T04:04:19.596Z,100217.77
2019-04-27T04:05:23.847Z,100220.58
2019-04-27T04:06:29.523Z,100212.81
2019-04-27T04:07:34.064Z,100217.32
2019-04-27T04:08:39.691Z,100216.04
2019-04-27T04:09:44.186Z,100222.99
2019-04-27T04:10:50.091Z,100208.77
2019-04-27T04:11:59.156Z,100210.48
2019-04-27T04:13:06.721Z,100218.72
2019-04-27T04:14:21.420Z,100209.47
2019-04-27T04:15:36.082Z,100222.36
2019-04-27T04:16:45.013Z,100212.61
2019-04-27T04:17:49.633Z,100218.45
2019-04-27T04:19:02.188Z,100219.22
2019-04-27T04:20:06.952Z,100216.44
2019-04-27T04:21:11.150Z,100219.79
2019-04-27T04:22:15.431Z,100221.70
2019-04-27T04:23:20.436Z,100223.27
2019-04-27T04:24:31.551Z,100219.81
2019-04-27T04:25:34.464Z,100211.36
2019-04-27T04:26:40.230Z,100219.27
2019-04-27T04:27:45.184Z,100223.20
2019-04-27T04:28:50.121Z,100217.08
2019-04-27T04:29:54.370Z,100222.63
2019-04-27T04:31:00.449Z,100221.45
2019-04-27T04:32:04.570Z,100213.31
2019-04-27T04:33:10.120Z,100209.91
2019-04-27T04:34:14.836Z,100215.41
2019-04-27T04:35:21.481Z,100226.00
2019-04-27T04:36:25.895Z,100220.37
2019-04-27T04:37:30.067Z,100223.39
2019-04-27T04:38:34.288Z,100223.95
2019-04-27T04:39:40.250Z,100228.73
2019-04-27T04:40:51.890Z,100217.59
2019-04-27T04:41:59.752Z,100229.48
2019-04-27T04:43:12.392Z,100226.95
2019-04-27T04:44:30.081Z,100225.47
2019-04-27T04:45:50.156Z,100228.52
2019-04-27T04:47:00.306Z,100232.43
2019-04-27T04:48:05.661Z,100214.77
2019-04-27T04:49:09.821Z,100234.95
2019-04-27T04:50:15.405Z,100229.34
2019-04-27T04:51:20.192Z,100230.63
2019-04-27T04:52:24.421Z,100230.41
2019-04-27T04:53:29.406Z,100234.30
2019-04-27T04:54:33.862Z,100228.42
2019-04-27T04:55:39.270Z,100231.80
2019-04-27T04:56:43.528Z,100226.50
2019-04-27T04:57:49.326Z,100234.70
2019-04-27T04:58:53.658Z,100237.55
2019-04-27T04:59:59.298Z,100238.42
2019-04-27T05:01:04.343Z,100228.94
2019-04-27T05:02:10.569Z,100232.17
2019-04-27T05:03:15.339Z,100235.27
2019-04-27T05:04:19.525Z,100237.03
2019-04-27T05:05:23.759Z,100239.06
2019-04-27T05:06:29.229Z,100231.86
2019-04-27T05:07:33.595Z,100231.11
2019-04-27T05:08:39.348Z,100229.23
2019-04-27T05:09:43.676Z,100218.57
2019-04-27T05:10:49.662Z,100228.95
2019-04-27T05:11:53.998Z,100226.73
2019-04-27T05:12:59.027Z,100233.16
2019-04-27T05:14:04.286Z,100233.16
2019-04-27T05:15:09.244Z,100234.02
2019-04-27T05:16:13.751Z,100231.28
2019-04-27T05:17:19.617Z,100240.69
2019-04-27T05:18:24.045Z,100237.25
2019-04-27T05:19:28.846Z,100237.25
2019-04-27T05:20:39.542Z,100232.25
2019-04-27T05:21:43.946Z,100234.25
2019-04-27T05:22:49.144Z,100242.08
2019-04-27T05:23:54.528Z,100228.42
2019-04-27T05:25:01.938Z,100239.31
2019-04-27T05:26:06.330Z,100229.81
2019-04-27T05:27:10.581Z,100233.91
2019-04-27T05:28:14.840Z,100230.86
2019-04-27T05:29:21.671Z,100232.02
2019-04-27T05:30:25.891Z,100228.72
2019-04-27T05:31:30.096Z,100233.25
2019-04-27T05:32:34.317Z,100230.19
2019-04-27T05:33:38.917Z,100234.66
2019-04-27T05:34:43.323Z,100238.91
2019-04-27T05:35:49.165Z,100237.02
2019-04-27T05:36:53.702Z,100236.47
2019-04-27T05:38:02.465Z,100232.52
2019-04-27T05:39:06.058Z,100237.53
2019-04-27T05:40:10.610Z,100231.64
2019-04-27T05:41:14.982Z,100233.61
2019-04-27T05:42:20.041Z,100231.11
2019-04-27T05:43:30.158Z,100230.27
2019-04-27T05:45:01.851Z,100231.44
2019-04-27T05:46:36.808Z,100227.88
2019-04-27T05:47:43.329Z,100225.98
2019-04-27T05:48:48.940Z,100227.43
2019-04-27T05:49:54.871Z,100221.59
2019-04-27T05:51:01.920Z,100223.59
2019-04-27T05:52:08.567Z,100227.23
2019-04-27T05:53:12.702Z,100223.59
2019-04-27T05:54:16.882Z,100227.52
2019-04-27T05:55:21.203Z,100220.30
2019-04-27T05:56:25.447Z,100225.89
2019-04-27T05:57:31.329Z,100221.17
2019-04-27T05:58:35.648Z,100225.09
2019-04-27T05:59:39.978Z,100224.53
2019-04-27T06:00:44.415Z,100227.09
2019-04-27T06:01:49.291Z,100228.48
2019-04-27T06:02:53.713Z,100226.24
2019-04-27T06:03:58.822Z,100224.81
2019-04-27T06:05:03.605Z,100230.72
2019-04-27T06:06:09.625Z,100228.20
2019-04-27T06:07:13.720Z,100219.82
2019-04-27T06:08:21.129Z,100224.57
2019-04-27T06:09:24.902Z,100229.91
2019-04-27T06:10:29.679Z,100228.20
2019-04-27T06:11:33.925Z,100226.24
2019-04-27T06:12:39.559Z,100220.66
2019-04-27T06:13:43.897Z,100224.57
2019-04-27T06:14:49.390Z,100218.98
2019-04-27T06:15:53.671Z,100220.97
2019-04-27T06:16:59.559Z,100211.72
2019-04-27T06:18:04.433Z,100208.12
2019-04-27T06:19:09.603Z,100200.30
2019-04-27T06:20:13.976Z,100211.77
2019-04-27T06:21:19.595Z,100205.34
2019-04-27T06:22:24.399Z,100207.30
2019-04-27T06:23:29.059Z,100195.53
2019-04-27T06:24:33.707Z,100194.14
2019-04-27T06:25:39.337Z,100209.51
2019-04-27T06:26:43.768Z,100204.48
2019-04-27T06:27:49.548Z,100202.23
2019-04-27T06:28:55.005Z,100195.84
2019-04-27T06:29:59.525Z,100206.44
2019-04-27T06:31:04.431Z,100209.23
2019-04-27T06:32:09.007Z,100204.77
2019-04-27T06:33:27.233Z,100197.78
2019-04-27T06:34:20.447Z,100198.90
2019-04-27T06:35:24.795Z,100200.00
2019-04-27T06:36:29.227Z,100203.66
2019-04-27T06:37:33.454Z,100203.95
2019-04-27T06:38:39.223Z,100200.91
2019-04-27T06:39:44.762Z,100210.95
2019-04-27T06:40:49.154Z,100207.88
2019-04-27T06:41:54.400Z,100205.38
2019-04-27T06:42:59.559Z,100198.38
2019-04-27T06:44:04.760Z,100203.95
2019-04-27T06:45:09.951Z,100199.21
2019-04-27T06:46:15.407Z,100200.59
2019-04-27T06:47:19.634Z,100198.09
2019-04-27T06:48:23.796Z,100199.23
2019-04-27T06:49:29.516Z,100195.30
2019-04-27T06:50:34.896Z,100202.00
2019-04-27T06:51:40.020Z,100189.46
2019-04-27T06:52:44.423Z,100195.86
2019-04-27T06:53:49.418Z,100192.50
2019-04-27T06:54:54.773Z,100192.78
2019-04-27T06:55:58.971Z,100193.91
2019-04-27T06:57:03.248Z,100189.14
2019-04-27T06:58:08.974Z,100196.41
2019-04-27T06:59:13.235Z,100194.45
2019-04-27T07:00:18.980Z,100188.02
2019-04-27T07:01:23.264Z,100186.60
2019-04-27T07:02:29.079Z,100195.82
2019-04-27T07:03:33.854Z,100190.25
2019-04-27T07:04:39.092Z,100188.58
2019-04-27T07:05:43.489Z,100188.84
2019-04-27T07:06:55.396Z,100196.97
2019-04-27T07:07:53.733Z,100196.69
2019-04-27T07:08:59.609Z,100191.64
2019-04-27T07:10:06.019Z,100190.25
2019-04-27T07:11:11.494Z,100185.48
2019-04-27T07:12:18.929Z,100188.02
2019-04-27T07:13:23.042Z,100192.48
2019-04-27T07:14:29.300Z,100186.34
2019-04-27T07:15:33.234Z,100191.36
2019-04-27T07:16:39.128Z,100192.77
2019-04-27T07:17:43.387Z,100189.13
2019-04-27T07:18:47.564Z,100188.56
2019-04-27T07:19:51.741Z,100186.61
2019-04-27T07:20:55.918Z,100194.16
2019-04-27T07:22:00.293Z,100189.67
2019-04-27T07:23:04.539Z,100184.09
2019-04-27T07:24:09.100Z,100189.97
2019-04-27T07:25:15.032Z,100197.22
2019-04-27T07:26:21.260Z,100198.62
2019-04-27T07:27:29.005Z,100197.81
2019-04-27T07:28:32.617Z,100195.04
2019-04-27T07:29:36.859Z,100200.08
2019-04-27T07:30:42.325Z,100203.98
2019-04-27T07:31:46.506Z,100197.28
2019-04-27T07:32:50.859Z,100192.23
2019-04-27T07:33:55.033Z,100197.02
2019-04-27T07:34:59.382Z,100197.02
2019-04-27T07:36:04.286Z,100196.45
2019-04-27T07:37:09.338Z,100202.30
2019-04-27T07:38:14.464Z,100197.55
2019-04-27T07:39:19.329Z,100198.93
2019-04-27T07:40:23.775Z,100196.13
2019-04-27T07:41:29.187Z,100199.22
2019-04-27T07:42:34.376Z,100200.89
2019-04-27T07:43:40.266Z,100193.62
2019-04-27T07:44:46.156Z,100202.59
2019-04-27T07:45:50.444Z,100202.29
2019-04-27T07:47:12.518Z,100195.86
2019-04-27T07:48:18.863Z,100188.30
2019-04-27T07:49:23.121Z,100193.62
2019-04-27T07:50:29.019Z,100194.17
2019-04-27T07:51:34.451Z,100199.77
2019-04-27T07:52:40.462Z,100193.63
2019-04-27T07:53:44.822Z,100190.84
2019-04-27T07:54:49.392Z,100190.84
2019-04-27T07:55:53.706Z,100181.61
2019-04-27T07:56:58.770Z,100182.16
2019-04-27T07:58:05.211Z,100179.64
2019-04-27T07:59:09.457Z,100176.56
2019-04-27T08:00:14.279Z,100179.64
2019-04-27T08:01:19.286Z,100190.27
2019-04-27T08:02:23.699Z,100179.37
2019-04-27T08:03:29.146Z,100187.20
2019-04-27T08:04:33.754Z,100183.02
2019-04-27T08:05:39.130Z,100180.77
2019-04-27T08:06:43.477Z,100183.00
2019-04-27T08:07:49.152Z,100188.05
2019-04-27T08:08:53.637Z,100195.86
2019-04-27T08:10:01.123Z,100180.78
2019-04-27T08:11:04.757Z,100181.91
2019-04-27T08:12:10.707Z,100174.33
2019-04-27T08:13:14.819Z,100182.45
2019-04-27T08:14:19.078Z,100178.53
2019-04-27T08:15:23.257Z,100178.53
2019-04-27T08:16:29.067Z,100182.43
2019-04-27T08:17:33.679Z,100176.25
2019-04-27T08:18:39.605Z,100184.09
2019-04-27T08:19:43.997Z,100174.02
2019-04-27T08:20:49.095Z,100181.02
2019-04-27T08:21:53.471Z,100176.52
2019-04-27T08:22:59.870Z,100181.81
2019-04-27T08:24:04.986Z,100183.50
2019-04-27T08:25:09.654Z,100170.87
2019-04-27T08:26:15.467Z,100163.30
2019-04-27T08:27:21.302Z,100174.75
2019-04-27T08:28:34.512Z,100180.05
2019-04-27T08:29:55.833Z,100172.77
2019-04-27T08:31:04.408Z,100177.26
2019-04-27T08:32:10.225Z,100178.09
2019-04-27T08:33:16.157Z,100173.07
2019-04-27T08:34:32.893Z,100160.77
2019-04-27T08:35:38.895Z,100175.30
2019-04-27T08:36:44.192Z,100168.30
2019-04-27T08:37:49.637Z,100174.68
2019-04-27T08:38:53.821Z,100176.34
2019-04-27T08:39:59.241Z,100176.04
2019-04-27T08:41:04.298Z,100177.40
2019-04-27T08:42:09.541Z,100183.25
2019-04-27T08:43:13.879Z,100174.53
2019-04-27T08:44:19.411Z,100174.02
2019-04-27T08:45:23.748Z,100174.03
2019-04-27T08:46:28.649Z,100171.56
2019-04-27T08:47:33.056Z,100172.69
2019-04-27T08:48:39.322Z,100172.11
2019-04-27T08:49:43.461Z,100174.62
2019-04-27T08:50:48.621Z,100174.64
2019-04-27T08:51:59.139Z,100166.55
2019-04-27T08:53:00.818Z,100174.13
2019-04-27T08:54:05.028Z,100166.04
2019-04-27T08:55:09.665Z,100165.45
2019-04-27T08:56:13.859Z,100158.69
2019-04-27T08:57:18.814Z,100154.19
2019-04-27T08:58:28.584Z,100146.64
2019-04-27T08:59:32.915Z,100151.38
2019-04-27T09:00:38.979Z,100156.67
2019-04-27T09:01:43.057Z,100150.45
2019-04-27T09:02:50.272Z,100154.12
2019-04-27T09:03:54.087Z,100151.34
2019-04-27T09:04:59.625Z,100152.77
2019-04-27T09:06:06.216Z,100149.97
2019-04-27T09:07:31.516Z,100132.59
2019-04-27T09:08:41.217Z,100141.25
2019-04-27T09:09:46.530Z,100136.97
2019-04-27T09:11:01.443Z,100138.59
2019-04-27T09:12:19.704Z,100138.27
2019-04-27T09:13:31.393Z,100137.09
2019-04-27T09:14:38.963Z,100132.27
2019-04-27T09:15:50.605Z,100136.22
2019-04-27T09:17:09.589Z,100119.61
2019-04-27T09:18:15.830Z,100129.64
2019-04-27T09:19:24.841Z,100126.22
2019-04-27T09:20:34.044Z,100123.19
2019-04-27T09:22:10.071Z,100120.39
2019-04-27T09:23:02.379Z,100126.00
2019-04-27T09:24:06.711Z,100124.06
2019-04-27T09:25:10.975Z,100124.65
2019-04-27T09:26:15.346Z,100123.22
2019-04-27T09:27:19.970Z,100119.95
2019-04-27T09:28:24.284Z,100122.70
2019-04-27T09:29:29.837Z,100124.33
2019-04-27T09:30:35.069Z,100119.83
2019-04-27T09:31:39.532Z,100121.98
2019-04-27T09:32:43.808Z,100126.97
2019-04-27T09:33:48.054Z,100118.61
2019-04-27T09:34:52.307Z,100123.65
2019-04-27T09:35:56.786Z,100122.75
2019-04-27T09:37:01.072Z,100120.48
2019-04-27T09:38:07.011Z,100117.11
2019-04-27T09:39:12.046Z,100115.95
2019-04-27T09:40:17.161Z,100122.73
2019-04-27T09:41:21.611Z,100115.86
2019-04-27T09:42:26.861Z,100107.23
2019-04-27T09:43:31.204Z,100120.84
2019-04-27T09:44:37.121Z,100115.27
2019-04-27T09:45:41.487Z,100116.96
2019-04-27T09:46:47.450Z,100117.20
2019-04-27T09:47:52.785Z,100112.73
2019-04-27T09:48:57.471Z,100115.47
2019-04-27T09:50:01.766Z,100114.55
2019-04-27T09:51:06.562Z,100113.14
2019-04-27T09:52:23.357Z,100112.31
2019-04-27T09:53:16.834Z,100108.41
2019-04-27T09:54:23.632Z,100115.41
2019-04-27T09:55:27.469Z,100110.19
2019-04-27T09:56:31.714Z,100108.64
2019-04-27T09:57:36.538Z,100109.84
2019-04-27T09:58:40.796Z,100102.78
2019-04-27T09:59:46.038Z,100103.34
2019-04-27T10:00:50.649Z,100104.42
2019-04-27T10:01:55.579Z,100100.46
2019-04-27T10:03:01.277Z,100107.12
2019-04-27T10:04:06.606Z,100102.73
2019-04-27T10:05:10.859Z,100104.61
2019-04-27T10:06:16.325Z,100095.45
2019-04-27T10:07:20.587Z,100095.92
2019-04-27T10:08:26.172Z,100092.77
2019-04-27T10:09:31.145Z,100093.72
2019-04-27T10:10:37.150Z,100092.97
2019-04-27T10:11:41.605Z,100093.88
2019-04-27T10:12:46.654Z,100087.33
2019-04-27T10:13:51.102Z,100091.30
2019-04-27T10:14:55.987Z,100093.51
2019-04-27T10:16:00.395Z,100099.97
2019-04-27T10:17:04.747Z,100089.75
2019-04-27T10:18:08.922Z,100100.45
2019-04-27T10:19:13.350Z,100101.90
2019-04-27T10:20:17.522Z,100093.73
2019-04-27T10:21:21.855Z,100094.53
2019-04-27T10:22:39.873Z,100111.66
2019-04-27T10:23:31.966Z,100107.18
2019-04-27T10:24:36.280Z,100112.20
2019-04-27T10:25:40.494Z,100105.09
2019-04-27T10:26:44.827Z,100109.78
2019-04-27T10:27:50.820Z,100119.03
2019-04-27T10:28:56.020Z,100096.31
2019-04-27T10:30:00.354Z,100107.56
2019-04-27T10:31:04.630Z,100099.13
2019-04-27T10:32:09.089Z,100104.66
2019-04-27T10:33:13.297Z,100099.30
2019-04-27T10:34:17.652Z,100097.55
2019-04-27T10:35:21.918Z,100094.42
2019-04-27T10:36:40.989Z,100095.53
2019-04-27T10:37:45.336Z,100092.13
2019-04-27T10:38:49.718Z,100088.44
2019-04-27T10:39:53.898Z,100088.11
2019-04-27T10:40:58.084Z,100083.81
2019-04-27T10:42:02.320Z,100093.93
2019-04-27T10:43:06.706Z,100086.92
2019-04-27T10:44:11.319Z,100086.29
2019-04-27T10:45:16.920Z,100087.36
2019-04-27T10:46:21.255Z,100082.88
2019-04-27T10:47:26.064Z,100084.77
2019-04-27T10:48:30.359Z,100089.33
2019-04-27T10:49:34.624Z,100085.92
2019-04-27T10:50:38.873Z,100092.89
2019-04-27T10:51:43.243Z,100095.92
2019-04-27T10:52:53.809Z,100089.96
2019-04-27T10:53:53.470Z,100090.94
2019-04-27T10:54:59.370Z,100099.03
2019-04-27T10:56:04.403Z,100097.44
2019-04-27T10:57:08.698Z,100095.81
2019-04-27T10:58:12.951Z,100093.27
2019-04-27T10:59:17.202Z,100087.95
2019-04-27T11:00:23.091Z,100089.08
2019-04-27T11:01:27.586Z,100087.12
2019-04-27T11:02:31.867Z,100084.00
2019-04-27T11:03:40.803Z,100097.65
2019-04-27T11:05:02.473Z,100083.94
2019-04-27T11:06:23.534Z,100084.45
2019-04-27T11:07:30.470Z,100084.04
2019-04-27T11:08:34.714Z,100087.20
2019-04-27T11:09:38.899Z,100084.14
2019-04-27T11:10:43.133Z,100078.48
2019-04-27T11:11:47.310Z,100079.78
2019-04-27T11:12:52.882Z,100085.39
2019-04-27T11:14:00.846Z,100083.09
2019-04-27T11:15:05.865Z,100085.31
2019-04-27T11:16:09.912Z,100082.53
2019-04-27T11:17:14.088Z,100087.03
2019-04-27T11:18:18.340Z,100090.64
2019-04-27T11:19:22.556Z,100083.31
2019-04-27T11:20:27.849Z,100081.01
2019-04-27T11:21:32.065Z,100080.98
2019-04-27T11:22:36.591Z,100074.77
2019-04-27T11:23:40.930Z,100075.67
2019-04-27T11:24:45.784Z,100067.85
2019-04-27T11:25:52.326Z,100070.05
2019-04-27T11:26:56.776Z,100077.34
2019-04-27T11:28:01.168Z,100081.37
2019-04-27T11:29:05.683Z,100077.73
2019-04-27T11:30:10.138Z,100070.38
2019-04-27T11:31:16.951Z,100071.00
2019-04-27T11:32:20.533Z,100073.89
2019-04-27T11:33:26.340Z,100063.80
2019-04-27T11:34:48.365Z,100064.95
2019-04-27T11:35:55.122Z,100055.95
2019-04-27T11:37:00.996Z,100062.44
2019-04-27T11:38:05.670Z,100068.59
2019-04-27T11:39:12.605Z,100047.22
2019-04-27T11:40:17.040Z,100054.72
2019-04-27T11:41:21.328Z,100047.55
2019-04-27T11:42:25.502Z,100048.09
2019-04-27T11:43:29.750Z,100047.81
2019-04-27T11:44:35.886Z,100050.00
2019-04-27T11:45:40.171Z,100053.91
2019-04-27T11:46:45.532Z,100046.87
2019-04-27T11:47:50.709Z,100050.56
2019-04-27T11:48:58.038Z,100039.66
2019-04-27T11:50:01.015Z,100033.99
2019-04-27T11:51:06.947Z,100040.05
2019-04-27T11:52:11.115Z,100033.34
2019-04-27T11:53:22.858Z,100036.38
2019-04-27T11:54:22.268Z,100032.98
2019-04-27T11:55:27.319Z,100034.56
2019-04-27T11:56:31.794Z,100032.02
2019-04-27T11:57:37.696Z,100008.91
2019-04-27T11:58:42.136Z,100008.91
2019-04-27T11:59:46.381Z,100015.14
2019-04-27T12:00:50.933Z,100014.02
2019-04-27T12:01:55.965Z,100011.71
2019-04-27T12:03:01.326Z,100001.42
2019-04-27T12:04:06.527Z,100006.70
2019-04-27T12:05:10.839Z,100005.60
2019-04-27T12:06:15.778Z,100007.23
2019-04-27T12:07:20.126Z,99999.36
2019-04-27T12:08:26.021Z,100005.71
2019-04-27T12:09:30.446Z,99999.06
2019-04-27T12:10:36.307Z,100005.47
2019-04-27T12:11:40.714Z,100010.85
2019-04-27T12:12:46.354Z,100001.17
2019-04-27T12:13:50.752Z,100007.65
2019-04-27T12:14:56.037Z,100006.84
2019-04-27T12:16:00.413Z,100015.29
2019-04-27T12:17:06.270Z,99999.87
2019-04-27T12:18:10.523Z,99996.83
2019-04-27T12:19:16.332Z,100002.11
2019-04-27T12:20:20.844Z,100001.06
2019-04-27T12:21:25.027Z,100000.47
2019-04-27T12:22:29.200Z,99996.47
2019-04-27T12:23:39.477Z,99997.06
2019-04-27T12:24:39.285Z,99996.86
2019-04-27T12:25:43.653Z,100000.05
2019-04-27T12:27:05.788Z,99984.70
2019-04-27T12:28:17.098Z,99986.10
2019-04-27T12:29:22.969Z,99988.17
2019-04-27T12:30:47.011Z,99999.42
2019-04-27T12:31:51.335Z,99986.08
2019-04-27T12:32:55.908Z,99991.70
2019-04-27T12:34:00.235Z,99984.06
2019-04-27T12:35:06.720Z,99987.02
2019-04-27T12:36:11.083Z,99992.30
2019-04-27T12:37:15.709Z,99987.11